sensor_id;sensor_type;location;lat;lon;timestamp;P1;durP1;ratioP1;P2;durP2;ratioP2
26574;SDS011;67165;50.256;10.978;2023-09-19T00:01:28;6.00;;;2.67;;
26574;SDS011;67165;50.256;10.978;2023-09-19T00:03:55;5.13;;;3.20;;
26574;SDS011;67165;50.256;10.978;2023-09-19T00:06:23;4.65;;;2.70;;
26574;SDS011;67165;50.256;10.978;2023-09-19T00:08:51;4.05;;;2.63;;
26574;SDS011;67165;50.256;10.978;2023-09-19T00:11:17;8.40;;;2.97;;
26574;SDS011;67165;50.256;10.978;2023-09-19T00:13:43;5.05;;;2.70;;
26574;SDS011;67165;50.256;10.978;2023-09-19T00:16:09;7.55;;;3.10;;
26574;SDS011;67165;50.256;10.978;2023-09-19T00:18:36;5.88;;;2.75;;
26574;SDS011;67165;50.256;10.978;2023-09-19T00:21:03;5.80;;;2.67;;
26574;SDS011;67165;50.256;10.978;2023-09-19T00:23:32;7.18;;;2.47;;
26574;SDS011;67165;50.256;10.978;2023-09-19T00:25:58;3.22;;;2.47;;
26574;SDS011;67165;50.256;10.978;2023-09-19T00:28:25;6.50;;;2.95;;
26574;SDS011;67165;50.256;10.978;2023-09-19T00:30:51;3.15;;;2.40;;
26574;SDS011;67165;50.256;10.978;2023-09-19T00:33:16;3.25;;;2.53;;
26574;SDS011;67165;50.256;10.978;2023-09-19T00:35:50;5.72;;;2.35;;
26574;SDS011;67165;50.256;10.978;2023-09-19T00:38:16;4.28;;;2.10;;
26574;SDS011;67165;50.256;10.978;2023-09-19T00:40:46;5.63;;;2.47;;
26574;SDS011;67165;50.256;10.978;2023-09-19T00:43:12;4.88;;;2.35;;
26574;SDS011;67165;50.256;10.978;2023-09-19T00:45:39;5.60;;;2.13;;
26574;SDS011;67165;50.256;10.978;2023-09-19T00:48:09;2.58;;;1.85;;
26574;SDS011;67165;50.256;10.978;2023-09-19T00:50:35;3.25;;;2.20;;
26574;SDS011;67165;50.256;10.978;2023-09-19T00:53:01;6.30;;;2.20;;
26574;SDS011;67165;50.256;10.978;2023-09-19T00:55:32;4.35;;;2.20;;
26574;SDS011;67165;50.256;10.978;2023-09-19T00:57:59;3.38;;;1.83;;
26574;SDS011;67165;50.256;10.978;2023-09-19T01:00:26;6.22;;;2.28;;
26574;SDS011;67165;50.256;10.978;2023-09-19T01:02:52;4.88;;;2.20;;
26574;SDS011;67165;50.256;10.978;2023-09-19T01:05:17;3.72;;;2.00;;
26574;SDS011;67165;50.256;10.978;2023-09-19T01:07:43;3.08;;;2.28;;
26574;SDS011;67165;50.256;10.978;2023-09-19T01:10:11;2.83;;;2.00;;
26574;SDS011;67165;50.256;10.978;2023-09-19T01:17:53;6.85;;;2.00;;
26574;SDS011;67165;50.256;10.978;2023-09-19T01:28:06;3.10;;;1.73;;
26574;SDS011;67165;50.256;10.978;2023-09-19T01:30:40;4.70;;;1.77;;
26574;SDS011;67165;50.256;10.978;2023-09-19T01:33:09;5.32;;;2.13;;
26574;SDS011;67165;50.256;10.978;2023-09-19T01:35:39;1.95;;;1.60;;
26574;SDS011;67165;50.256;10.978;2023-09-19T01:38:05;1.75;;;1.58;;
26574;SDS011;67165;50.256;10.978;2023-09-19T01:40:41;6.03;;;2.15;;
26574;SDS011;67165;50.256;10.978;2023-09-19T01:43:22;5.30;;;2.10;;
26574;SDS011;67165;50.256;10.978;2023-09-19T01:48:35;4.32;;;1.85;;
26574;SDS011;67165;50.256;10.978;2023-09-19T01:51:13;4.82;;;2.05;;
26574;SDS011;67165;50.256;10.978;2023-09-19T01:53:53;2.88;;;2.22;;
26574;SDS011;67165;50.256;10.978;2023-09-19T01:56:28;3.25;;;2.10;;
26574;SDS011;67165;50.256;10.978;2023-09-19T01:59:02;3.55;;;2.15;;
26574;SDS011;67165;50.256;10.978;2023-09-19T02:01:32;2.60;;;2.00;;
26574;SDS011;67165;50.256;10.978;2023-09-19T02:04:00;5.13;;;2.30;;
26574;SDS011;67165;50.256;10.978;2023-09-19T02:06:25;3.38;;;2.30;;
26574;SDS011;67165;50.256;10.978;2023-09-19T02:08:52;3.53;;;2.15;;
26574;SDS011;67165;50.256;10.978;2023-09-19T02:11:19;2.85;;;1.88;;
26574;SDS011;67165;50.256;10.978;2023-09-19T02:13:44;7.00;;;2.05;;
26574;SDS011;67165;50.256;10.978;2023-09-19T02:16:10;6.65;;;2.10;;
26574;SDS011;67165;50.256;10.978;2023-09-19T02:18:37;5.30;;;2.40;;
26574;SDS011;67165;50.256;10.978;2023-09-19T02:21:04;3.90;;;1.85;;
26574;SDS011;67165;50.256;10.978;2023-09-19T02:23:31;4.82;;;2.20;;
26574;SDS011;67165;50.256;10.978;2023-09-19T02:25:58;2.55;;;1.80;;
26574;SDS011;67165;50.256;10.978;2023-09-19T02:28:28;4.20;;;1.85;;
26574;SDS011;67165;50.256;10.978;2023-09-19T02:30:55;2.40;;;1.63;;
26574;SDS011;67165;50.256;10.978;2023-09-19T02:33:21;9.30;;;1.98;;
26574;SDS011;67165;50.256;10.978;2023-09-19T02:35:47;2.60;;;1.60;;
26574;SDS011;67165;50.256;10.978;2023-09-19T02:38:13;2.55;;;1.80;;
26574;SDS011;67165;50.256;10.978;2023-09-19T02:40:43;3.45;;;1.63;;
26574;SDS011;67165;50.256;10.978;2023-09-19T02:43:09;2.60;;;1.60;;
26574;SDS011;67165;50.256;10.978;2023-09-19T02:45:35;3.95;;;2.00;;
26574;SDS011;67165;50.256;10.978;2023-09-19T02:48:00;3.15;;;1.70;;
26574;SDS011;67165;50.256;10.978;2023-09-19T02:50:27;4.70;;;1.77;;
26574;SDS011;67165;50.256;10.978;2023-09-19T02:52:53;2.60;;;1.67;;
26574;SDS011;67165;50.256;10.978;2023-09-19T02:55:18;3.83;;;1.58;;
26574;SDS011;67165;50.256;10.978;2023-09-19T02:57:48;3.70;;;1.92;;
26574;SDS011;67165;50.256;10.978;2023-09-19T03:00:16;5.05;;;1.60;;
26574;SDS011;67165;50.256;10.978;2023-09-19T03:02:49;1.50;;;1.40;;
26574;SDS011;67165;50.256;10.978;2023-09-19T03:05:19;2.95;;;1.40;;
26574;SDS011;67165;50.256;10.978;2023-09-19T03:07:46;5.22;;;1.70;;
26574;SDS011;67165;50.256;10.978;2023-09-19T03:10:15;2.60;;;1.60;;
26574;SDS011;67165;50.256;10.978;2023-09-19T03:12:41;3.70;;;1.75;;
26574;SDS011;67165;50.256;10.978;2023-09-19T03:15:07;4.15;;;1.70;;
26574;SDS011;67165;50.256;10.978;2023-09-19T03:17:33;3.83;;;1.92;;
26574;SDS011;67165;50.256;10.978;2023-09-19T03:20:00;6.40;;;1.80;;
26574;SDS011;67165;50.256;10.978;2023-09-19T03:22:26;4.03;;;1.73;;
26574;SDS011;67165;50.256;10.978;2023-09-19T03:24:52;3.00;;;1.38;;
26574;SDS011;67165;50.256;10.978;2023-09-19T03:27:18;3.22;;;1.80;;
26574;SDS011;67165;50.256;10.978;2023-09-19T03:29:45;2.28;;;1.50;;
26574;SDS011;67165;50.256;10.978;2023-09-19T03:32:11;2.95;;;1.80;;
26574;SDS011;67165;50.256;10.978;2023-09-19T03:34:37;4.65;;;1.85;;
26574;SDS011;67165;50.256;10.978;2023-09-19T03:37:08;5.38;;;2.30;;
26574;SDS011;67165;50.256;10.978;2023-09-19T03:39:34;3.47;;;1.80;;
26574;SDS011;67165;50.256;10.978;2023-09-19T03:42:00;4.30;;;1.70;;
26574;SDS011;67165;50.256;10.978;2023-09-19T03:44:28;5.55;;;1.80;;
26574;SDS011;67165;50.256;10.978;2023-09-19T03:46:53;3.17;;;1.95;;
26574;SDS011;67165;50.256;10.978;2023-09-19T03:49:20;3.20;;;1.90;;
26574;SDS011;67165;50.256;10.978;2023-09-19T03:51:46;4.10;;;1.90;;
26574;SDS011;67165;50.256;10.978;2023-09-19T03:54:11;3.97;;;2.20;;
26574;SDS011;67165;50.256;10.978;2023-09-19T03:56:37;4.55;;;1.88;;
26574;SDS011;67165;50.256;10.978;2023-09-19T03:59:03;2.40;;;1.77;;
26574;SDS011;67165;50.256;10.978;2023-09-19T04:01:29;5.47;;;2.05;;
26574;SDS011;67165;50.256;10.978;2023-09-19T04:03:57;4.28;;;2.20;;
26574;SDS011;67165;50.256;10.978;2023-09-19T04:06:22;4.03;;;2.20;;
26574;SDS011;67165;50.256;10.978;2023-09-19T04:08:48;4.30;;;2.05;;
26574;SDS011;67165;50.256;10.978;2023-09-19T04:11:14;3.63;;;2.30;;
26574;SDS011;67165;50.256;10.978;2023-09-19T04:13:39;4.63;;;2.10;;
26574;SDS011;67165;50.256;10.978;2023-09-19T04:16:05;4.50;;;2.03;;
26574;SDS011;67165;50.256;10.978;2023-09-19T04:18:34;4.40;;;2.05;;
26574;SDS011;67165;50.256;10.978;2023-09-19T04:21:03;3.22;;;2.00;;
26574;SDS011;67165;50.256;10.978;2023-09-19T04:23:30;4.20;;;2.35;;
26574;SDS011;67165;50.256;10.978;2023-09-19T04:25:56;4.38;;;2.38;;
26574;SDS011;67165;50.256;10.978;2023-09-19T04:28:22;7.68;;;2.58;;
26574;SDS011;67165;50.256;10.978;2023-09-19T04:30:49;3.38;;;2.20;;
26574;SDS011;67165;50.256;10.978;2023-09-19T04:33:15;6.22;;;2.33;;
26574;SDS011;67165;50.256;10.978;2023-09-19T04:35:41;4.43;;;2.38;;
26574;SDS011;67165;50.256;10.978;2023-09-19T04:38:09;3.25;;;2.30;;
26574;SDS011;67165;50.256;10.978;2023-09-19T04:40:35;4.65;;;2.20;;
26574;SDS011;67165;50.256;10.978;2023-09-19T04:43:00;4.78;;;2.28;;
26574;SDS011;67165;50.256;10.978;2023-09-19T04:45:27;5.18;;;2.33;;
26574;SDS011;67165;50.256;10.978;2023-09-19T04:47:53;4.28;;;2.30;;
26574;SDS011;67165;50.256;10.978;2023-09-19T04:50:19;5.95;;;2.85;;
26574;SDS011;67165;50.256;10.978;2023-09-19T04:52:46;5.10;;;2.65;;
26574;SDS011;67165;50.256;10.978;2023-09-19T04:55:16;4.35;;;2.85;;
26574;SDS011;67165;50.256;10.978;2023-09-19T04:57:47;3.97;;;2.50;;
26574;SDS011;67165;50.256;10.978;2023-09-19T05:00:17;4.38;;;2.72;;
26574;SDS011;67165;50.256;10.978;2023-09-19T05:02:44;6.85;;;3.03;;
26574;SDS011;67165;50.256;10.978;2023-09-19T05:05:10;6.18;;;2.95;;
26574;SDS011;67165;50.256;10.978;2023-09-19T05:07:37;4.85;;;2.63;;
26574;SDS011;67165;50.256;10.978;2023-09-19T05:10:04;5.53;;;2.53;;
26574;SDS011;67165;50.256;10.978;2023-09-19T05:12:32;3.90;;;2.55;;
26574;SDS011;67165;50.256;10.978;2023-09-19T05:14:59;6.47;;;3.00;;
26574;SDS011;67165;50.256;10.978;2023-09-19T05:17:25;4.53;;;2.33;;
26574;SDS011;67165;50.256;10.978;2023-09-19T05:19:50;5.38;;;2.60;;
26574;SDS011;67165;50.256;10.978;2023-09-19T05:22:17;3.92;;;2.63;;
26574;SDS011;67165;50.256;10.978;2023-09-19T05:24:43;2.75;;;2.45;;
26574;SDS011;67165;50.256;10.978;2023-09-19T05:27:13;4.35;;;3.13;;
26574;SDS011;67165;50.256;10.978;2023-09-19T05:29:42;7.35;;;2.90;;
26574;SDS011;67165;50.256;10.978;2023-09-19T05:32:09;3.55;;;2.58;;
26574;SDS011;67165;50.256;10.978;2023-09-19T05:34:35;5.20;;;2.55;;
26574;SDS011;67165;50.256;10.978;2023-09-19T05:37:01;4.43;;;2.80;;
26574;SDS011;67165;50.256;10.978;2023-09-19T05:39:27;4.13;;;3.00;;
26574;SDS011;67165;50.256;10.978;2023-09-19T05:41:53;3.45;;;2.45;;
26574;SDS011;67165;50.256;10.978;2023-09-19T05:44:20;4.10;;;2.33;;
26574;SDS011;67165;50.256;10.978;2023-09-19T05:46:45;5.43;;;2.58;;
26574;SDS011;67165;50.256;10.978;2023-09-19T05:49:13;5.05;;;2.90;;
26574;SDS011;67165;50.256;10.978;2023-09-19T05:51:39;3.80;;;2.65;;
26574;SDS011;67165;50.256;10.978;2023-09-19T05:54:05;9.30;;;2.88;;
26574;SDS011;67165;50.256;10.978;2023-09-19T05:56:30;6.32;;;3.00;;
26574;SDS011;67165;50.256;10.978;2023-09-19T05:58:56;5.30;;;2.83;;
26574;SDS011;67165;50.256;10.978;2023-09-19T06:01:22;5.97;;;2.33;;
26574;SDS011;67165;50.256;10.978;2023-09-19T06:03:48;4.40;;;2.50;;
26574;SDS011;67165;50.256;10.978;2023-09-19T06:06:13;6.75;;;3.00;;
26574;SDS011;67165;50.256;10.978;2023-09-19T06:08:39;2.65;;;2.35;;
26574;SDS011;67165;50.256;10.978;2023-09-19T06:11:05;6.32;;;2.28;;
26574;SDS011;67165;50.256;10.978;2023-09-19T06:13:32;7.38;;;2.75;;
26574;SDS011;67165;50.256;10.978;2023-09-19T06:15:58;6.63;;;2.30;;
26574;SDS011;67165;50.256;10.978;2023-09-19T06:18:28;3.25;;;2.22;;
26574;SDS011;67165;50.256;10.978;2023-09-19T06:20:54;4.60;;;2.40;;
26574;SDS011;67165;50.256;10.978;2023-09-19T06:23:20;3.15;;;2.30;;
26574;SDS011;67165;50.256;10.978;2023-09-19T06:25:47;3.92;;;2.17;;
26574;SDS011;67165;50.256;10.978;2023-09-19T06:28:13;4.78;;;2.13;;
26574;SDS011;67165;50.256;10.978;2023-09-19T06:30:39;4.47;;;2.03;;
26574;SDS011;67165;50.256;10.978;2023-09-19T06:33:05;4.53;;;2.17;;
26574;SDS011;67165;50.256;10.978;2023-09-19T06:35:32;3.00;;;1.90;;
26574;SDS011;67165;50.256;10.978;2023-09-19T06:37:59;3.53;;;1.95;;
26574;SDS011;67165;50.256;10.978;2023-09-19T06:40:28;6.68;;;2.38;;
26574;SDS011;67165;50.256;10.978;2023-09-19T06:42:56;3.67;;;2.05;;
26574;SDS011;67165;50.256;10.978;2023-09-19T06:45:22;4.38;;;1.95;;
26574;SDS011;67165;50.256;10.978;2023-09-19T06:47:51;3.55;;;1.80;;
26574;SDS011;67165;50.256;10.978;2023-09-19T06:50:17;5.72;;;2.13;;
26574;SDS011;67165;50.256;10.978;2023-09-19T06:52:44;3.97;;;1.90;;
26574;SDS011;67165;50.256;10.978;2023-09-19T06:55:11;4.70;;;2.10;;
26574;SDS011;67165;50.256;10.978;2023-09-19T06:57:38;5.43;;;1.95;;
26574;SDS011;67165;50.256;10.978;2023-09-19T07:00:05;2.55;;;1.95;;
26574;SDS011;67165;50.256;10.978;2023-09-19T07:02:43;4.57;;;2.03;;
26574;SDS011;67165;50.256;10.978;2023-09-19T07:05:26;6.22;;;1.95;;
26574;SDS011;67165;50.256;10.978;2023-09-19T07:07:53;3.13;;;2.10;;
26574;SDS011;67165;50.256;10.978;2023-09-19T07:10:20;2.00;;;1.63;;
26574;SDS011;67165;50.256;10.978;2023-09-19T07:12:53;4.22;;;1.77;;
26574;SDS011;67165;50.256;10.978;2023-09-19T07:15:23;2.67;;;1.52;;
26574;SDS011;67165;50.256;10.978;2023-09-19T07:17:50;4.95;;;2.22;;
26574;SDS011;67165;50.256;10.978;2023-09-19T07:20:17;4.68;;;2.00;;
26574;SDS011;67165;50.256;10.978;2023-09-19T07:22:43;4.18;;;1.70;;
26574;SDS011;67165;50.256;10.978;2023-09-19T07:25:09;3.85;;;1.80;;
26574;SDS011;67165;50.256;10.978;2023-09-19T07:27:35;2.28;;;1.70;;
26574;SDS011;67165;50.256;10.978;2023-09-19T07:30:00;2.63;;;1.70;;
26574;SDS011;67165;50.256;10.978;2023-09-19T07:32:26;4.93;;;1.80;;
26574;SDS011;67165;50.256;10.978;2023-09-19T07:34:52;3.20;;;1.67;;
26574;SDS011;67165;50.256;10.978;2023-09-19T07:37:19;4.57;;;1.70;;
26574;SDS011;67165;50.256;10.978;2023-09-19T07:39:46;4.18;;;1.80;;
26574;SDS011;67165;50.256;10.978;2023-09-19T07:42:12;4.40;;;1.70;;
26574;SDS011;67165;50.256;10.978;2023-09-19T07:44:42;3.72;;;1.70;;
26574;SDS011;67165;50.256;10.978;2023-09-19T07:47:11;3.22;;;1.60;;
26574;SDS011;67165;50.256;10.978;2023-09-19T07:49:38;2.33;;;1.70;;
26574;SDS011;67165;50.256;10.978;2023-09-19T07:52:04;6.22;;;1.65;;
26574;SDS011;67165;50.256;10.978;2023-09-19T07:54:30;2.30;;;1.63;;
26574;SDS011;67165;50.256;10.978;2023-09-19T07:57:00;4.72;;;1.80;;
26574;SDS011;67165;50.256;10.978;2023-09-19T07:59:26;5.75;;;1.70;;
26574;SDS011;67165;50.256;10.978;2023-09-19T08:01:52;3.85;;;1.77;;
26574;SDS011;67165;50.256;10.978;2023-09-19T08:04:19;3.83;;;1.70;;
26574;SDS011;67165;50.256;10.978;2023-09-19T08:06:45;4.30;;;2.08;;
26574;SDS011;67165;50.256;10.978;2023-09-19T08:09:11;2.13;;;1.55;;
26574;SDS011;67165;50.256;10.978;2023-09-19T08:11:39;3.97;;;1.60;;
26574;SDS011;67165;50.256;10.978;2023-09-19T08:14:04;4.45;;;1.80;;
26574;SDS011;67165;50.256;10.978;2023-09-19T08:16:32;4.97;;;1.38;;
26574;SDS011;67165;50.256;10.978;2023-09-19T08:18:58;2.63;;;1.40;;
26574;SDS011;67165;50.256;10.978;2023-09-19T08:21:24;4.40;;;1.73;;
26574;SDS011;67165;50.256;10.978;2023-09-19T08:23:51;2.42;;;1.50;;
26574;SDS011;67165;50.256;10.978;2023-09-19T08:26:17;2.67;;;1.67;;
26574;SDS011;67165;50.256;10.978;2023-09-19T08:28:44;3.63;;;1.52;;
26574;SDS011;67165;50.256;10.978;2023-09-19T08:31:10;3.88;;;1.55;;
26574;SDS011;67165;50.256;10.978;2023-09-19T08:33:36;3.22;;;1.80;;
26574;SDS011;67165;50.256;10.978;2023-09-19T08:36:03;6.05;;;1.48;;
26574;SDS011;67165;50.256;10.978;2023-09-19T08:38:30;2.88;;;1.70;;
26574;SDS011;67165;50.256;10.978;2023-09-19T08:40:58;3.53;;;1.48;;
26574;SDS011;67165;50.256;10.978;2023-09-19T08:43:25;3.28;;;1.70;;
26574;SDS011;67165;50.256;10.978;2023-09-19T08:48:33;4.90;;;1.65;;
26574;SDS011;67165;50.256;10.978;2023-09-19T08:51:10;2.50;;;1.77;;
26574;SDS011;67165;50.256;10.978;2023-09-19T08:53:54;4.30;;;1.75;;
26574;SDS011;67165;50.256;10.978;2023-09-19T08:56:24;2.42;;;1.40;;
26574;SDS011;67165;50.256;10.978;2023-09-19T08:58:55;1.80;;;1.20;;
26574;SDS011;67165;50.256;10.978;2023-09-19T09:01:27;2.50;;;1.52;;
26574;SDS011;67165;50.256;10.978;2023-09-19T09:03:53;3.85;;;1.73;;
26574;SDS011;67165;50.256;10.978;2023-09-19T09:06:20;5.03;;;1.67;;
26574;SDS011;67165;50.256;10.978;2023-09-19T09:08:48;5.35;;;1.30;;
26574;SDS011;67165;50.256;10.978;2023-09-19T09:11:16;2.15;;;1.45;;
26574;SDS011;67165;50.256;10.978;2023-09-19T09:13:45;3.22;;;1.30;;
26574;SDS011;67165;50.256;10.978;2023-09-19T09:16:12;1.92;;;1.27;;
26574;SDS011;67165;50.256;10.978;2023-09-19T09:18:39;2.75;;;1.40;;
26574;SDS011;67165;50.256;10.978;2023-09-19T09:21:05;3.40;;;1.50;;
26574;SDS011;67165;50.256;10.978;2023-09-19T09:23:31;4.72;;;1.40;;
26574;SDS011;67165;50.256;10.978;2023-09-19T09:25:57;2.28;;;1.60;;
26574;SDS011;67165;50.256;10.978;2023-09-19T09:28:34;2.47;;;1.50;;
26574;SDS011;67165;50.256;10.978;2023-09-19T09:31:04;6.55;;;1.40;;
26574;SDS011;67165;50.256;10.978;2023-09-19T09:33:34;3.97;;;1.52;;
26574;SDS011;67165;50.256;10.978;2023-09-19T09:36:02;3.83;;;1.50;;
26574;SDS011;67165;50.256;10.978;2023-09-19T09:38:42;1.73;;;1.30;;
26574;SDS011;67165;50.256;10.978;2023-09-19T09:41:10;2.65;;;1.65;;
26574;SDS011;67165;50.256;10.978;2023-09-19T09:43:40;3.15;;;1.27;;
26574;SDS011;67165;50.256;10.978;2023-09-19T09:46:11;2.30;;;1.40;;
26574;SDS011;67165;50.256;10.978;2023-09-19T09:48:56;2.25;;;1.33;;
26574;SDS011;67165;50.256;10.978;2023-09-19T09:54:29;2.42;;;1.45;;
26574;SDS011;67165;50.256;10.978;2023-09-19T09:57:01;3.25;;;1.58;;
26574;SDS011;67165;50.256;10.978;2023-09-19T09:59:48;2.33;;;1.50;;
26574;SDS011;67165;50.256;10.978;2023-09-19T10:04:58;2.95;;;1.40;;
26574;SDS011;67165;50.256;10.978;2023-09-19T10:07:34;3.28;;;1.40;;
26574;SDS011;67165;50.256;10.978;2023-09-19T10:10:05;2.70;;;1.20;;
26574;SDS011;67165;50.256;10.978;2023-09-19T10:12:45;3.08;;;1.60;;
26574;SDS011;67165;50.256;10.978;2023-09-19T10:15:13;2.75;;;1.30;;
26574;SDS011;67165;50.256;10.978;2023-09-19T10:17:43;3.28;;;1.60;;
26574;SDS011;67165;50.256;10.978;2023-09-19T10:20:12;4.28;;;1.48;;
26574;SDS011;67165;50.256;10.978;2023-09-19T10:23:03;2.67;;;1.50;;
26574;SDS011;67165;50.256;10.978;2023-09-19T10:25:36;3.17;;;1.63;;
26574;SDS011;67165;50.256;10.978;2023-09-19T10:28:05;4.07;;;1.80;;
26574;SDS011;67165;50.256;10.978;2023-09-19T10:30:46;3.40;;;1.50;;
26574;SDS011;67165;50.256;10.978;2023-09-19T10:33:14;3.33;;;1.40;;
26574;SDS011;67165;50.256;10.978;2023-09-19T10:35:43;5.70;;;1.92;;
26574;SDS011;67165;50.256;10.978;2023-09-19T10:38:11;1.92;;;1.60;;
26574;SDS011;67165;50.256;10.978;2023-09-19T10:40:38;3.03;;;1.55;;
26574;SDS011;67165;50.256;10.978;2023-09-19T10:43:08;2.22;;;1.42;;
26574;SDS011;67165;50.256;10.978;2023-09-19T10:45:37;5.47;;;1.80;;
26574;SDS011;67165;50.256;10.978;2023-09-19T10:48:05;3.60;;;1.70;;
26574;SDS011;67165;50.256;10.978;2023-09-19T10:50:36;5.50;;;1.90;;
26574;SDS011;67165;50.256;10.978;2023-09-19T10:53:15;4.45;;;1.75;;
26574;SDS011;67165;50.256;10.978;2023-09-19T10:55:47;5.05;;;1.90;;
26574;SDS011;67165;50.256;10.978;2023-09-19T10:58:29;2.67;;;1.50;;
26574;SDS011;67165;50.256;10.978;2023-09-19T11:00:59;2.75;;;1.88;;
26574;SDS011;67165;50.256;10.978;2023-09-19T11:03:37;5.07;;;2.00;;
26574;SDS011;67165;50.256;10.978;2023-09-19T11:11:47;2.72;;;1.73;;
26574;SDS011;67165;50.256;10.978;2023-09-19T11:36:08;4.50;;;2.10;;
26574;SDS011;67165;50.256;10.978;2023-09-19T11:43:48;4.53;;;2.10;;
26574;SDS011;67165;50.256;10.978;2023-09-19T11:46:19;6.18;;;2.20;;
26574;SDS011;67165;50.256;10.978;2023-09-19T11:48:49;5.47;;;2.40;;
26574;SDS011;67165;50.256;10.978;2023-09-19T11:51:22;4.90;;;2.42;;
26574;SDS011;67165;50.256;10.978;2023-09-19T11:53:52;6.10;;;2.28;;
26574;SDS011;67165;50.256;10.978;2023-09-19T11:56:24;5.53;;;2.20;;
26574;SDS011;67165;50.256;10.978;2023-09-19T11:58:53;3.60;;;2.20;;
26574;SDS011;67165;50.256;10.978;2023-09-19T12:01:22;3.42;;;2.28;;
26574;SDS011;67165;50.256;10.978;2023-09-19T12:03:52;6.70;;;2.40;;
26574;SDS011;67165;50.256;10.978;2023-09-19T12:06:19;4.63;;;2.38;;
26574;SDS011;67165;50.256;10.978;2023-09-19T12:08:46;5.82;;;2.38;;
26574;SDS011;67165;50.256;10.978;2023-09-19T12:11:14;7.40;;;2.42;;
26574;SDS011;67165;50.256;10.978;2023-09-19T12:13:41;3.72;;;2.53;;
26574;SDS011;67165;50.256;10.978;2023-09-19T12:16:15;5.32;;;2.47;;
26574;SDS011;67165;50.256;10.978;2023-09-19T12:18:43;8.63;;;2.55;;
26574;SDS011;67165;50.256;10.978;2023-09-19T12:23:59;5.07;;;2.40;;
26574;SDS011;67165;50.256;10.978;2023-09-19T12:26:45;7.88;;;2.65;;
26574;SDS011;67165;50.256;10.978;2023-09-19T12:29:18;5.63;;;2.53;;
26574;SDS011;67165;50.256;10.978;2023-09-19T12:31:54;5.05;;;2.10;;
26574;SDS011;67165;50.256;10.978;2023-09-19T12:34:28;8.25;;;2.95;;
26574;SDS011;67165;50.256;10.978;2023-09-19T12:37:06;4.95;;;2.63;;
26574;SDS011;67165;50.256;10.978;2023-09-19T12:39:52;4.72;;;2.63;;
26574;SDS011;67165;50.256;10.978;2023-09-19T12:42:21;4.25;;;2.40;;
26574;SDS011;67165;50.256;10.978;2023-09-19T12:44:54;4.78;;;2.05;;
26574;SDS011;67165;50.256;10.978;2023-09-19T12:47:22;4.88;;;2.42;;
26574;SDS011;67165;50.256;10.978;2023-09-19T12:50:04;4.38;;;2.60;;
26574;SDS011;67165;50.256;10.978;2023-09-19T12:52:49;5.63;;;2.30;;
26574;SDS011;67165;50.256;10.978;2023-09-19T12:57:59;6.70;;;2.20;;
26574;SDS011;67165;50.256;10.978;2023-09-19T13:00:37;5.10;;;2.50;;
26574;SDS011;67165;50.256;10.978;2023-09-19T13:03:15;4.82;;;2.40;;
26574;SDS011;67165;50.256;10.978;2023-09-19T13:05:50;5.43;;;2.50;;
26574;SDS011;67165;50.256;10.978;2023-09-19T13:08:28;7.03;;;2.40;;
26574;SDS011;67165;50.256;10.978;2023-09-19T13:13:27;3.55;;;2.20;;
26574;SDS011;67165;50.256;10.978;2023-09-19T13:15:53;5.50;;;2.30;;
26574;SDS011;67165;50.256;10.978;2023-09-19T13:18:22;3.72;;;2.10;;
26574;SDS011;67165;50.256;10.978;2023-09-19T13:21:09;4.65;;;2.22;;
26574;SDS011;67165;50.256;10.978;2023-09-19T13:23:43;9.68;;;2.25;;
26574;SDS011;67165;50.256;10.978;2023-09-19T13:26:09;5.72;;;2.45;;
26574;SDS011;67165;50.256;10.978;2023-09-19T13:28:37;3.33;;;2.00;;
26574;SDS011;67165;50.256;10.978;2023-09-19T13:31:04;5.07;;;2.50;;
26574;SDS011;67165;50.256;10.978;2023-09-19T13:33:30;5.05;;;2.45;;
26574;SDS011;67165;50.256;10.978;2023-09-19T13:35:56;5.32;;;2.08;;
26574;SDS011;67165;50.256;10.978;2023-09-19T13:38:23;4.78;;;2.20;;
26574;SDS011;67165;50.256;10.978;2023-09-19T13:40:48;4.63;;;2.10;;
26574;SDS011;67165;50.256;10.978;2023-09-19T13:43:17;4.22;;;1.90;;
26574;SDS011;67165;50.256;10.978;2023-09-19T13:45:44;4.28;;;1.98;;
26574;SDS011;67165;50.256;10.978;2023-09-19T13:48:10;3.53;;;2.20;;
26574;SDS011;67165;50.256;10.978;2023-09-19T13:50:36;4.68;;;2.10;;
26574;SDS011;67165;50.256;10.978;2023-09-19T13:53:07;4.32;;;2.35;;
26574;SDS011;67165;50.256;10.978;2023-09-19T13:55:36;5.30;;;2.13;;
26574;SDS011;67165;50.256;10.978;2023-09-19T13:58:03;3.50;;;2.28;;
26574;SDS011;67165;50.256;10.978;2023-09-19T14:00:30;8.25;;;2.30;;
26574;SDS011;67165;50.256;10.978;2023-09-19T14:02:59;6.47;;;2.30;;
26574;SDS011;67165;50.256;10.978;2023-09-19T14:05:26;6.78;;;2.38;;
26574;SDS011;67165;50.256;10.978;2023-09-19T14:07:53;4.95;;;1.83;;
26574;SDS011;67165;50.256;10.978;2023-09-19T14:10:21;4.95;;;2.25;;
26574;SDS011;67165;50.256;10.978;2023-09-19T14:12:46;4.25;;;2.05;;
26574;SDS011;67165;50.256;10.978;2023-09-19T14:15:12;7.07;;;2.50;;
26574;SDS011;67165;50.256;10.978;2023-09-19T14:17:39;4.90;;;2.13;;
26574;SDS011;67165;50.256;10.978;2023-09-19T14:20:10;3.97;;;2.10;;
26574;SDS011;67165;50.256;10.978;2023-09-19T14:22:36;5.05;;;2.13;;
26574;SDS011;67165;50.256;10.978;2023-09-19T14:25:04;4.55;;;2.47;;
26574;SDS011;67165;50.256;10.978;2023-09-19T14:27:30;2.88;;;1.95;;
26574;SDS011;67165;50.256;10.978;2023-09-19T14:29:56;3.75;;;2.08;;
26574;SDS011;67165;50.256;10.978;2023-09-19T14:32:22;4.40;;;1.83;;
26574;SDS011;67165;50.256;10.978;2023-09-19T14:34:48;3.55;;;1.90;;
26574;SDS011;67165;50.256;10.978;2023-09-19T14:37:14;6.05;;;2.50;;
26574;SDS011;67165;50.256;10.978;2023-09-19T14:39:41;4.63;;;2.20;;
26574;SDS011;67165;50.256;10.978;2023-09-19T14:42:10;3.72;;;2.20;;
26574;SDS011;67165;50.256;10.978;2023-09-19T14:44:36;4.97;;;2.33;;
26574;SDS011;67165;50.256;10.978;2023-09-19T14:47:05;5.20;;;2.33;;
26574;SDS011;67165;50.256;10.978;2023-09-19T14:49:35;4.53;;;2.60;;
26574;SDS011;67165;50.256;10.978;2023-09-19T14:52:08;5.68;;;2.30;;
26574;SDS011;67165;50.256;10.978;2023-09-19T14:54:34;2.95;;;2.22;;
26574;SDS011;67165;50.256;10.978;2023-09-19T14:57:02;3.50;;;2.20;;
26574;SDS011;67165;50.256;10.978;2023-09-19T14:59:32;3.45;;;2.20;;
26574;SDS011;67165;50.256;10.978;2023-09-19T15:02:02;4.40;;;2.03;;
26574;SDS011;67165;50.256;10.978;2023-09-19T15:04:29;6.13;;;2.20;;
26574;SDS011;67165;50.256;10.978;2023-09-19T15:06:54;5.70;;;2.10;;
26574;SDS011;67165;50.256;10.978;2023-09-19T15:09:23;3.55;;;2.05;;
26574;SDS011;67165;50.256;10.978;2023-09-19T15:11:52;3.97;;;2.17;;
26574;SDS011;67165;50.256;10.978;2023-09-19T15:14:18;3.63;;;2.00;;
26574;SDS011;67165;50.256;10.978;2023-09-19T15:16:44;4.95;;;2.10;;
26574;SDS011;67165;50.256;10.978;2023-09-19T15:19:10;4.53;;;2.17;;
26574;SDS011;67165;50.256;10.978;2023-09-19T15:21:36;4.82;;;2.50;;
26574;SDS011;67165;50.256;10.978;2023-09-19T15:24:02;6.60;;;2.50;;
26574;SDS011;67165;50.256;10.978;2023-09-19T15:26:29;5.05;;;2.15;;
26574;SDS011;67165;50.256;10.978;2023-09-19T15:28:55;4.00;;;1.90;;
26574;SDS011;67165;50.256;10.978;2023-09-19T15:31:21;6.13;;;2.50;;
26574;SDS011;67165;50.256;10.978;2023-09-19T15:33:47;5.10;;;1.95;;
26574;SDS011;67165;50.256;10.978;2023-09-19T15:36:13;4.00;;;2.13;;
26574;SDS011;67165;50.256;10.978;2023-09-19T15:38:56;4.25;;;1.92;;
26574;SDS011;67165;50.256;10.978;2023-09-19T15:41:35;5.38;;;2.20;;
26574;SDS011;67165;50.256;10.978;2023-09-19T15:44:03;3.35;;;2.00;;
26574;SDS011;67165;50.256;10.978;2023-09-19T15:46:29;3.25;;;2.10;;